Norman Y Mineta San Jose International Airport

KSJC · California, United States

METAR history KSJC · Norman Y Mineta San Jose International Airport

Below you see METARs of the last few days. Select a year to browse through older METARs, from the year 2007 onwards.

April 12, 2024

Time Code Weather Temp. Visibility Ceiling Wind METAR/SPECI
14:53
V
19 °C 10 mi - 220° 220° 16 - 24 kt METAR KSJC 122153Z 22016G24KT 10SM SCT042 SCT080 SCT120 19/07 A2978 RMK AO2 SLP084 T01890067
13:53
V
19 °C 10 mi - 210° 210° 12 - 20 kt METAR KSJC 122053Z 21012G20KT 10SM SCT035 SCT075 SCT120 19/08 A2977 RMK AO2 SLP082 T01940083 53007
12:53
V
18 °C 10 mi 8,000 ft 350° 350° 9 kt METAR KSJC 121953Z 35009KT 10SM SCT034 BKN080 BKN110 18/09 A2977 RMK AO2 SLP079 T01830094
11:53
V
19 °C 10 mi 11,000 ft Var Var 4 kt METAR KSJC 121853Z VRB04KT 10SM FEW034 SCT080 BKN110 19/09 A2976 RMK AO2 SLP076 T01890089
10:53
V
17 °C 10 mi 11,000 ft 360° 360° 0 kt METAR KSJC 121753Z 00000KT 10SM FEW016 SCT085 BKN110 17/08 A2975 RMK AO2 SLP074 T01670083 10172 20122 50002
09:53
V
15 °C 10 mi 11,000 ft Var Var 5 kt METAR KSJC 121653Z VRB05KT 10SM FEW016 SCT085 BKN110 15/09 A2976 RMK AO2 SLP076 T01500089
08:53
V
14 °C 10 mi 11,000 ft 350° 350° 4 kt METAR KSJC 121553Z 35004KT 10SM SCT016 SCT085 BKN110 14/09 A2976 RMK AO2 SLP076 T01390089
07:53
V
13 °C 10 mi - 340° 340° 6 kt METAR KSJC 121453Z 34006KT 10SM FEW009 FEW016 SCT085 13/09 A2975 RMK AO2 SLP072 T01280089 51005
06:53
V
13 °C 10 mi - 350° 350° 4 kt METAR KSJC 121353Z 35004KT 10SM FEW009 FEW016 FEW085 13/09 A2975 RMK AO2 SLP072 T01280089
05:53
V
13 °C 10 mi - 350° 350° 6 kt METAR KSJC 121253Z 35006KT 10SM CLR 13/09 A2974 RMK AO2 SLP068 T01280089
04:53
V
12 °C 10 mi - 360° 360° 0 kt METAR KSJC 121153Z AUTO 00000KT 10SM CLR 12/08 A2973 RMK AO2 SLP067 T01220083 10150 20122 56018
03:53
V
13 °C 10 mi - 360° 360° 0 kt METAR KSJC 121053Z AUTO 00000KT 10SM CLR 13/08 A2974 RMK AO2 SLP072 T01280083
02:53
V
14 °C 10 mi - 360° 360° 0 kt METAR KSJC 120953Z AUTO 00000KT 10SM CLR 14/09 A2977 RMK AO2 SLP079 T01390089
01:53
V
13 °C 10 mi - 340° 340° 6 kt METAR KSJC 120853Z AUTO 34006KT 10SM CLR 13/09 A2978 RMK AO2 SLP085 T01280089 56012
00:53
V
13 °C 10 mi - 320° 320° 4 kt METAR KSJC 120753Z AUTO 32004KT 10SM CLR 13/09 A2979 RMK AO2 SLP088 T01280089 402720128

April 11, 2024

Time Code Weather Temp. Visibility Ceiling Wind METAR/SPECI
23:53
V
15 °C 10 mi - 360° 360° 0 kt METAR KSJC 120653Z 00000KT 10SM CLR 15/09 A2980 RMK AO2 SLP092 T01500094
22:53
V
14 °C 10 mi - 310° 310° 3 kt METAR KSJC 120553Z 31003KT 10SM CLR 14/09 A2982 RMK AO2 SLP096 T01390094 10239 20139 50004
21:53
V
16 °C 10 mi - 340° 340° 7 kt METAR KSJC 120453Z 34007KT 10SM CLR 16/09 A2982 RMK AO2 SLP099 T01560094
20:53
V
16 °C 10 mi - 330° 330° 6 kt METAR KSJC 120353Z 33006KT 10SM CLR 16/11 A2982 RMK AO2 SLP096 T01610106
19:53
V
17 °C 10 mi - 320° 320° 8 kt METAR KSJC 120253Z 32008KT 10SM FEW025 17/09 A2981 RMK AO2 SLP092 T01720089 56006
18:53
V
20 °C 10 mi - 310° 310° 9 kt METAR KSJC 120153Z 31009KT 10SM CLR 20/08 A2981 RMK AO2 SLP094 T02000078
17:53
V
23 °C 10 mi - 320° 320° 13 kt METAR KSJC 120053Z 32013KT 10SM FEW035 23/05 A2982 RMK AO2 SLP095 T02280050
16:53
V
24 °C 10 mi - 310° 310° 14 kt METAR KSJC 112353Z 31014KT 10SM FEW040 FEW100 24/08 A2982 RMK AO2 SLP098 60000 T02390078 10272 20217 56018
15:53
V
26 °C 10 mi - 310° 310° 9 kt METAR KSJC 112253Z 31009KT 10SM FEW040 FEW100 26/09 A2984 RMK AO2 SLP102 T02610089
14:53
V
27 °C 10 mi - 320° 320° 11 kt METAR KSJC 112153Z 32011KT 10SM FEW040 FEW120 27/08 A2985 RMK AO2 SLP108 T02670083
13:53
V
27 °C 10 mi - 320° 320° 7 kt METAR KSJC 112053Z 32007KT 10SM FEW100 SCT130 27/10 A2988 RMK AO2 SLP116 60000 T02720100 56025
12:53
V
27 °C 10 mi - 330° 330° 6 kt METAR KSJC 111953Z 33006KT 10SM FEW100 SCT130 27/11 A2990 RMK AO2 SLP124 T02670111
11:53
V
24 °C 10 mi - 010° 010° 3 kt METAR KSJC 111853Z 01003KT 10SM FEW100 SCT130 24/12 A2992 RMK AO2 SLP132 T02440117
10:53
V
23 °C 10 mi - 360° 360° 0 kt METAR KSJC 111753Z 00000KT 10SM FEW030 FEW100 FEW130 23/11 A2995 RMK AO2 SLP141 T02280111 10228 20128 58005
09:53
V
19 °C 10 mi - 360° 360° 0 kt METAR KSJC 111653Z 00000KT 10SM FEW030 FEW100 FEW130 19/11 A2996 RMK AO2 SLP144 T01940106
08:53
V
17 °C 10 mi - 360° 360° 0 kt METAR KSJC 111553Z 00000KT 10SM FEW030 FEW100 FEW130 17/10 A2997 RMK AO2 SLP147 T01720100
07:53
V
15 °C 10 mi - 360° 360° 0 kt METAR KSJC 111453Z 00000KT 10SM FEW033 FEW100 FEW130 15/09 A2997 RMK AO2 SLP146 T01500094 56001
06:53
V
13 °C 10 mi - 360° 360° 0 kt METAR KSJC 111353Z 00000KT 10SM FEW033 FEW100 FEW130 13/09 A2997 RMK AO2 SLP147 T01330089
05:53
V
14 °C 10 mi - 360° 360° 0 kt METAR KSJC 111253Z 00000KT 10SM CLR 14/09 A2997 RMK AO2 SLP147 T01390094
04:53
V
14 °C 10 mi - 360° 360° 0 kt METAR KSJC 111153Z AUTO 00000KT 10SM CLR 14/09 A2997 RMK AO2 SLP148 T01440089 10172 20139 58012
03:53
V
15 °C 10 mi - 360° 360° 0 kt METAR KSJC 111053Z AUTO 00000KT 10SM CLR 15/09 A2998 RMK AO2 SLP153 T01500094
02:53
V
16 °C 10 mi - 150° 150° 3 kt METAR KSJC 110953Z AUTO 15003KT 10SM CLR 16/09 A2999 RMK AO2 SLP156 T01560094
01:53
V
16 °C 10 mi - 360° 360° 0 kt METAR KSJC 110853Z AUTO 00000KT 10SM CLR 16/09 A3000 RMK AO2 SLP160 T01610094 58009
00:53
V
17 °C 10 mi - 360° 360° 0 kt METAR KSJC 110753Z AUTO 00000KT 10SM CLR 17/09 A3001 RMK AO2 SLP163 T01670094 402720106

April 10, 2024

Time Code Weather Temp. Visibility Ceiling Wind METAR/SPECI
23:53
V
17 °C 10 mi - 360° 360° 0 kt METAR KSJC 110653Z 00000KT 10SM CLR 17/12 A3003 RMK AO2 SLP167 T01670122
22:53
V
17 °C 10 mi - 310° 310° 3 kt METAR KSJC 110553Z 31003KT 10SM CLR 17/11 A3003 RMK AO2 SLP169 T01670111 10256 20167 50009
21:53
V
17 °C 10 mi - 300° 300° 4 kt METAR KSJC 110453Z 30004KT 10SM CLR 17/10 A3003 RMK AO2 SLP170 T01720100
20:53
V
18 °C 10 mi - 320° 320° 6 kt METAR KSJC 110353Z 32006KT 10SM CLR 18/11 A3002 RMK AO2 SLP166 T01830106
19:53
V
19 °C 10 mi 11,000 ft 330° 330° 9 kt METAR KSJC 110253Z 33009KT 10SM BKN110 19/11 A3001 RMK AO2 SLP160 T01940106 55005
18:53
V
23 °C 10 mi 11,000 ft 320° 320° 10 kt METAR KSJC 110153Z 32010KT 10SM BKN110 OVC130 23/11 A3000 RMK AO2 SLP159 T02280106
17:53
V
25 °C 10 mi 11,000 ft 320° 320° 10 kt METAR KSJC 110053Z 32010KT 10SM BKN110 OVC130 25/11 A3001 RMK AO2 SLP161 T02500106
16:53
V
26 °C 10 mi 11,000 ft 320° 320° 9 kt METAR KSJC 102353Z 32009KT 10SM SCT080 BKN110 OVC130 26/12 A3002 RMK AO2 SLP165 T02560117 10272 20194 58019
15:53
V
27 °C 10 mi 11,000 ft 310° 310° 9 kt METAR KSJC 102253Z 31009KT 10SM SCT080 BKN110 BKN130 27/12 A3004 RMK AO2 SLP172 T02670122
14:53
V
27 °C 10 mi 11,000 ft 330° 330° 7 kt METAR KSJC 102153Z 33007KT 310V010 10SM SCT080 BKN110 OVC130 27/12 A3006 RMK AO2 SLP179 T02670117
13:53
V
26 °C 10 mi 11,000 ft 350° 350° 5 kt METAR KSJC 102053Z 35005KT 10SM SCT080 BKN110 OVC130 26/07 A3008 RMK AO2 SLP185 T02560072 58016
12:53
V
23 °C 10 mi 11,000 ft 310° 310° 4 kt METAR KSJC 101953Z 31004KT 10SM SCT080 BKN110 OVC170 23/10 A3010 RMK AO2 SLP191 T02330100
11:53
V
22 °C 10 mi 11,000 ft Var Var 3 kt METAR KSJC 101853Z VRB03KT 10SM SCT080 BKN110 OVC170 22/09 A3011 RMK AO2 SLP196 T02220089
10:53
V
19 °C 10 mi 11,000 ft 360° 360° 0 kt METAR KSJC 101753Z 00000KT 10SM SCT080 BKN110 BKN170 19/09 A3013 RMK AO2 SLP200 T01940094 10200 20106 50001
09:53
V
17 °C 10 mi 11,000 ft Var Var 3 kt METAR KSJC 101653Z VRB03KT 10SM SCT080 BKN110 BKN170 17/10 A3013 RMK AO2 SLP201 T01670100
08:53
V
15 °C 10 mi 11,000 ft 360° 360° 0 kt METAR KSJC 101553Z 00000KT 10SM SCT080 BKN110 BKN170 15/09 A3012 RMK AO2 SLP200 T01500094
07:53
V
13 °C 10 mi - 360° 360° 0 kt METAR KSJC 101453Z 00000KT 10SM FEW060 SCT080 SCT170 13/08 A3012 RMK AO2 SLP199 T01280083 53005
06:53
V
11 °C 10 mi - 360° 360° 0 kt METAR KSJC 101353Z 00000KT 10SM FEW060 SCT080 SCT150 11/07 A3012 RMK AO2 SLP197 T01060067
05:53
V
12 °C 10 mi - 360° 360° 0 kt METAR KSJC 101253Z 00000KT 10SM CLR 12/07 A3011 RMK AO2 SLP194 T01170067
04:53
V
12 °C 10 mi - 170° 170° 3 kt METAR KSJC 101153Z AUTO 17003KT 10SM CLR 12/08 A3011 RMK AO2 SLP194 T01170078 10150 20111 56009
03:53
V
11 °C 10 mi - 150° 150° 3 kt METAR KSJC 101053Z AUTO 15003KT 10SM CLR 11/08 A3012 RMK AO2 SLP197 T01110083
02:53
V
13 °C 10 mi - 220° 220° 3 kt METAR KSJC 100953Z AUTO 22003KT 10SM CLR 13/09 A3012 RMK AO2 SLP198 T01280094
01:53
V
14 °C 10 mi - 360° 360° 0 kt METAR KSJC 100853Z AUTO 00000KT 10SM CLR 14/10 A3014 RMK AO2 SLP204 T01390100 57006
00:53
V
14 °C 10 mi - 360° 360° 0 kt METAR KSJC 100753Z AUTO 00000KT 10SM CLR 14/10 A3014 RMK AO2 SLP206 T01390100 402560083

April 9, 2024

Time Code Weather Temp. Visibility Ceiling Wind METAR/SPECI
23:53
V
14 °C 10 mi - 320° 320° 4 kt METAR KSJC 100653Z 32004KT 10SM CLR 14/09 A3014 RMK AO2 SLP207 T01390094
22:53
V
14 °C 10 mi - 320° 320° 5 kt METAR KSJC 100553Z 32005KT 10SM CLR 14/09 A3015 RMK AO2 SLP209 T01440094 10250 20139 50014
Report a change